sensor_id;sensor_type;location;lat;lon;timestamp;P1;durP1;ratioP1;P2;durP2;ratioP2
59074;SDS011;44860;53.020;6.738;2022-12-04T00:01:16;54.53;;;29.42;;
59074;SDS011;44860;53.020;6.738;2022-12-04T00:03:43;56.40;;;30.50;;
59074;SDS011;44860;53.020;6.738;2022-12-04T00:06:10;55.08;;;29.08;;
59074;SDS011;44860;53.020;6.738;2022-12-04T00:08:37;53.78;;;30.05;;
59074;SDS011;44860;53.020;6.738;2022-12-04T00:11:04;53.90;;;29.08;;
59074;SDS011;44860;53.020;6.738;2022-12-04T00:13:31;55.13;;;29.75;;
59074;SDS011;44860;53.020;6.738;2022-12-04T00:15:57;54.33;;;28.70;;
59074;SDS011;44860;53.020;6.738;2022-12-04T00:18:23;58.10;;;31.65;;
59074;SDS011;44860;53.020;6.738;2022-12-04T00:20:49;52.30;;;28.85;;
59074;SDS011;44860;53.020;6.738;2022-12-04T00:23:15;54.80;;;29.92;;
59074;SDS011;44860;53.020;6.738;2022-12-04T00:25:41;60.47;;;31.40;;
59074;SDS011;44860;53.020;6.738;2022-12-04T00:28:07;58.40;;;31.95;;
59074;SDS011;44860;53.020;6.738;2022-12-04T00:30:33;53.55;;;28.98;;
59074;SDS011;44860;53.020;6.738;2022-12-04T00:32:58;53.08;;;30.13;;
59074;SDS011;44860;53.020;6.738;2022-12-04T00:35:24;55.95;;;31.10;;
59074;SDS011;44860;53.020;6.738;2022-12-04T00:37:50;53.63;;;30.42;;
59074;SDS011;44860;53.020;6.738;2022-12-04T00:40:16;55.45;;;29.65;;
59074;SDS011;44860;53.020;6.738;2022-12-04T00:42:41;59.08;;;30.05;;
59074;SDS011;44860;53.020;6.738;2022-12-04T00:45:07;58.50;;;32.78;;
59074;SDS011;44860;53.020;6.738;2022-12-04T00:47:33;55.33;;;30.58;;
59074;SDS011;44860;53.020;6.738;2022-12-04T00:49:58;55.33;;;31.88;;
59074;SDS011;44860;53.020;6.738;2022-12-04T00:52:24;81.30;;;39.50;;
59074;SDS011;44860;53.020;6.738;2022-12-04T00:54:52;63.33;;;33.72;;
59074;SDS011;44860;53.020;6.738;2022-12-04T00:57:18;63.63;;;34.50;;
59074;SDS011;44860;53.020;6.738;2022-12-04T00:59:43;59.28;;;33.25;;
59074;SDS011;44860;53.020;6.738;2022-12-04T01:02:09;61.58;;;32.75;;
59074;SDS011;44860;53.020;6.738;2022-12-04T01:04:34;76.18;;;38.08;;
59074;SDS011;44860;53.020;6.738;2022-12-04T01:07:00;77.38;;;39.95;;
59074;SDS011;44860;53.020;6.738;2022-12-04T01:09:26;65.88;;;32.25;;
59074;SDS011;44860;53.020;6.738;2022-12-04T01:11:51;58.03;;;32.30;;
59074;SDS011;44860;53.020;6.738;2022-12-04T01:14:17;64.00;;;35.92;;
59074;SDS011;44860;53.020;6.738;2022-12-04T01:16:42;59.20;;;31.83;;
59074;SDS011;44860;53.020;6.738;2022-12-04T01:19:09;59.03;;;31.02;;
59074;SDS011;44860;53.020;6.738;2022-12-04T01:21:38;61.15;;;31.42;;
59074;SDS011;44860;53.020;6.738;2022-12-04T01:24:05;58.30;;;31.50;;
59074;SDS011;44860;53.020;6.738;2022-12-04T01:26:31;56.00;;;29.10;;
59074;SDS011;44860;53.020;6.738;2022-12-04T01:28:56;54.83;;;30.35;;
59074;SDS011;44860;53.020;6.738;2022-12-04T01:31:22;52.05;;;29.35;;
59074;SDS011;44860;53.020;6.738;2022-12-04T01:33:49;53.15;;;29.40;;
59074;SDS011;44860;53.020;6.738;2022-12-04T01:36:17;55.70;;;30.52;;
59074;SDS011;44860;53.020;6.738;2022-12-04T01:38:44;52.10;;;29.20;;
59074;SDS011;44860;53.020;6.738;2022-12-04T01:41:11;54.20;;;29.42;;
59074;SDS011;44860;53.020;6.738;2022-12-04T01:43:38;53.22;;;29.92;;
59074;SDS011;44860;53.020;6.738;2022-12-04T01:46:05;52.95;;;29.48;;
59074;SDS011;44860;53.020;6.738;2022-12-04T01:48:42;55.92;;;30.02;;
59074;SDS011;44860;53.020;6.738;2022-12-04T01:51:15;56.15;;;30.30;;
59074;SDS011;44860;53.020;6.738;2022-12-04T01:53:55;54.00;;;29.92;;
59074;SDS011;44860;53.020;6.738;2022-12-04T01:56:35;54.00;;;29.48;;
59074;SDS011;44860;53.020;6.738;2022-12-04T01:59:08;52.58;;;29.00;;
59074;SDS011;44860;53.020;6.738;2022-12-04T02:01:41;58.05;;;30.67;;
59074;SDS011;44860;53.020;6.738;2022-12-04T02:04:13;55.70;;;28.77;;
59074;SDS011;44860;53.020;6.738;2022-12-04T02:06:39;53.70;;;29.17;;
59074;SDS011;44860;53.020;6.738;2022-12-04T02:09:05;54.65;;;29.45;;
59074;SDS011;44860;53.020;6.738;2022-12-04T02:11:37;52.78;;;28.88;;
59074;SDS011;44860;53.020;6.738;2022-12-04T02:14:30;56.47;;;29.77;;
59074;SDS011;44860;53.020;6.738;2022-12-04T02:19:53;52.58;;;28.67;;
59074;SDS011;44860;53.020;6.738;2022-12-04T02:22:39;54.58;;;29.92;;
59074;SDS011;44860;53.020;6.738;2022-12-04T02:27:51;54.17;;;30.30;;
59074;SDS011;44860;53.020;6.738;2022-12-04T02:30:26;53.35;;;29.77;;
59074;SDS011;44860;53.020;6.738;2022-12-04T02:35:40;56.23;;;30.30;;
59074;SDS011;44860;53.020;6.738;2022-12-04T02:40:49;54.50;;;30.73;;
59074;SDS011;44860;53.020;6.738;2022-12-04T02:43:24;54.97;;;29.38;;
59074;SDS011;44860;53.020;6.738;2022-12-04T02:48:22;59.60;;;30.67;;
59074;SDS011;44860;53.020;6.738;2022-12-04T02:50:52;56.92;;;31.00;;
59074;SDS011;44860;53.020;6.738;2022-12-04T02:53:22;56.63;;;30.90;;
59074;SDS011;44860;53.020;6.738;2022-12-04T02:55:55;58.55;;;30.98;;
59074;SDS011;44860;53.020;6.738;2022-12-04T02:58:32;61.60;;;30.52;;
59074;SDS011;44860;53.020;6.738;2022-12-04T03:01:05;58.67;;;31.55;;
59074;SDS011;44860;53.020;6.738;2022-12-04T03:03:43;56.97;;;30.50;;
59074;SDS011;44860;53.020;6.738;2022-12-04T03:06:23;55.63;;;30.75;;
59074;SDS011;44860;53.020;6.738;2022-12-04T03:08:54;57.10;;;31.13;;
59074;SDS011;44860;53.020;6.738;2022-12-04T03:11:25;59.97;;;32.67;;
59074;SDS011;44860;53.020;6.738;2022-12-04T03:13:56;61.20;;;32.50;;
59074;SDS011;44860;53.020;6.738;2022-12-04T03:16:34;59.22;;;31.73;;
59074;SDS011;44860;53.020;6.738;2022-12-04T03:19:04;57.78;;;32.90;;
59074;SDS011;44860;53.020;6.738;2022-12-04T03:21:40;60.65;;;32.35;;
59074;SDS011;44860;53.020;6.738;2022-12-04T03:24:15;62.90;;;32.45;;
59074;SDS011;44860;53.020;6.738;2022-12-04T03:26:45;62.80;;;33.92;;
59074;SDS011;44860;53.020;6.738;2022-12-04T03:29:20;59.67;;;33.33;;
59074;SDS011;44860;53.020;6.738;2022-12-04T03:31:50;58.88;;;33.22;;
59074;SDS011;44860;53.020;6.738;2022-12-04T03:34:33;62.80;;;33.35;;
59074;SDS011;44860;53.020;6.738;2022-12-04T03:37:13;60.78;;;33.88;;
59074;SDS011;44860;53.020;6.738;2022-12-04T03:45:02;55.85;;;30.20;;
59074;SDS011;44860;53.020;6.738;2022-12-04T03:47:35;61.17;;;33.35;;
59074;SDS011;44860;53.020;6.738;2022-12-04T03:50:16;60.67;;;33.15;;
59074;SDS011;44860;53.020;6.738;2022-12-04T03:52:59;62.13;;;33.72;;
59074;SDS011;44860;53.020;6.738;2022-12-04T03:55:44;63.08;;;33.55;;
59074;SDS011;44860;53.020;6.738;2022-12-04T03:58:17;64.25;;;34.28;;
59074;SDS011;44860;53.020;6.738;2022-12-04T04:00:48;60.80;;;33.45;;
59074;SDS011;44860;53.020;6.738;2022-12-04T04:03:21;61.97;;;34.00;;
59074;SDS011;44860;53.020;6.738;2022-12-04T04:06:02;57.63;;;32.35;;
59074;SDS011;44860;53.020;6.738;2022-12-04T04:08:33;55.85;;;33.05;;
59074;SDS011;44860;53.020;6.738;2022-12-04T04:13:32;62.63;;;34.42;;
59074;SDS011;44860;53.020;6.738;2022-12-04T04:16:22;61.10;;;33.25;;
59074;SDS011;44860;53.020;6.738;2022-12-04T04:19:10;62.78;;;34.22;;
59074;SDS011;44860;53.020;6.738;2022-12-04T04:21:57;61.22;;;33.13;;
59074;SDS011;44860;53.020;6.738;2022-12-04T04:25:28;57.55;;;33.88;;
59074;SDS011;44860;53.020;6.738;2022-12-04T04:27:55;57.03;;;32.50;;
59074;SDS011;44860;53.020;6.738;2022-12-04T04:30:22;58.58;;;33.80;;
59074;SDS011;44860;53.020;6.738;2022-12-04T04:32:53;59.60;;;33.67;;
59074;SDS011;44860;53.020;6.738;2022-12-04T04:35:50;59.33;;;33.33;;
59074;SDS011;44860;53.020;6.738;2022-12-04T04:41:19;57.80;;;33.55;;
59074;SDS011;44860;53.020;6.738;2022-12-04T04:43:58;58.80;;;32.90;;
59074;SDS011;44860;53.020;6.738;2022-12-04T04:46:49;58.38;;;33.45;;
59074;SDS011;44860;53.020;6.738;2022-12-04T04:49:21;57.15;;;33.15;;
59074;SDS011;44860;53.020;6.738;2022-12-04T04:51:50;60.70;;;33.33;;
59074;SDS011;44860;53.020;6.738;2022-12-04T04:54:17;58.20;;;32.30;;
59074;SDS011;44860;53.020;6.738;2022-12-04T04:56:44;60.05;;;32.13;;
59074;SDS011;44860;53.020;6.738;2022-12-04T04:59:11;58.55;;;32.63;;
59074;SDS011;44860;53.020;6.738;2022-12-04T05:01:38;57.40;;;33.42;;
59074;SDS011;44860;53.020;6.738;2022-12-04T05:04:05;57.70;;;33.03;;
59074;SDS011;44860;53.020;6.738;2022-12-04T05:06:31;57.10;;;31.88;;
59074;SDS011;44860;53.020;6.738;2022-12-04T05:08:57;56.30;;;32.17;;
59074;SDS011;44860;53.020;6.738;2022-12-04T05:11:23;53.40;;;32.10;;
59074;SDS011;44860;53.020;6.738;2022-12-04T05:13:50;54.97;;;31.83;;
59074;SDS011;44860;53.020;6.738;2022-12-04T05:16:15;60.33;;;33.25;;
59074;SDS011;44860;53.020;6.738;2022-12-04T05:18:41;56.47;;;32.45;;
59074;SDS011;44860;53.020;6.738;2022-12-04T05:21:27;58.13;;;33.25;;
59074;SDS011;44860;53.020;6.738;2022-12-04T05:23:53;58.53;;;33.08;;
59074;SDS011;44860;53.020;6.738;2022-12-04T05:26:19;59.08;;;32.88;;
59074;SDS011;44860;53.020;6.738;2022-12-04T05:28:44;58.65;;;33.03;;
59074;SDS011;44860;53.020;6.738;2022-12-04T05:31:10;59.28;;;33.00;;
59074;SDS011;44860;53.020;6.738;2022-12-04T05:33:35;56.67;;;32.83;;
59074;SDS011;44860;53.020;6.738;2022-12-04T05:36:02;54.85;;;31.90;;
59074;SDS011;44860;53.020;6.738;2022-12-04T05:38:30;59.00;;;33.63;;
59074;SDS011;44860;53.020;6.738;2022-12-04T05:40:57;59.35;;;32.20;;
59074;SDS011;44860;53.020;6.738;2022-12-04T05:43:23;57.88;;;32.33;;
59074;SDS011;44860;53.020;6.738;2022-12-04T05:45:49;57.63;;;31.25;;
59074;SDS011;44860;53.020;6.738;2022-12-04T05:48:15;58.05;;;32.28;;
59074;SDS011;44860;53.020;6.738;2022-12-04T05:50:40;58.83;;;33.33;;
59074;SDS011;44860;53.020;6.738;2022-12-04T05:53:06;60.22;;;33.58;;
59074;SDS011;44860;53.020;6.738;2022-12-04T05:55:32;56.75;;;31.45;;
59074;SDS011;44860;53.020;6.738;2022-12-04T05:57:57;56.33;;;32.13;;
59074;SDS011;44860;53.020;6.738;2022-12-04T06:00:23;55.88;;;31.70;;
59074;SDS011;44860;53.020;6.738;2022-12-04T06:02:49;58.85;;;32.78;;
59074;SDS011;44860;53.020;6.738;2022-12-04T06:05:15;58.78;;;32.38;;
59074;SDS011;44860;53.020;6.738;2022-12-04T06:07:40;59.30;;;33.60;;
59074;SDS011;44860;53.020;6.738;2022-12-04T06:10:06;54.83;;;31.23;;
59074;SDS011;44860;53.020;6.738;2022-12-04T06:12:32;57.90;;;32.45;;
59074;SDS011;44860;53.020;6.738;2022-12-04T06:14:58;60.53;;;34.00;;
59074;SDS011;44860;53.020;6.738;2022-12-04T06:17:23;57.53;;;32.75;;
59074;SDS011;44860;53.020;6.738;2022-12-04T06:19:49;54.78;;;31.23;;
59074;SDS011;44860;53.020;6.738;2022-12-04T06:22:17;58.03;;;32.22;;
59074;SDS011;44860;53.020;6.738;2022-12-04T06:24:43;56.80;;;31.88;;
59074;SDS011;44860;53.020;6.738;2022-12-04T06:27:09;57.63;;;31.88;;
59074;SDS011;44860;53.020;6.738;2022-12-04T06:29:35;59.78;;;34.00;;
59074;SDS011;44860;53.020;6.738;2022-12-04T06:32:01;59.95;;;33.10;;
59074;SDS011;44860;53.020;6.738;2022-12-04T06:34:27;59.90;;;32.67;;
59074;SDS011;44860;53.020;6.738;2022-12-04T06:36:52;58.63;;;33.45;;
59074;SDS011;44860;53.020;6.738;2022-12-04T06:39:18;61.22;;;33.55;;
59074;SDS011;44860;53.020;6.738;2022-12-04T06:41:44;56.28;;;31.77;;
59074;SDS011;44860;53.020;6.738;2022-12-04T06:44:12;56.88;;;32.72;;
59074;SDS011;44860;53.020;6.738;2022-12-04T06:46:40;58.20;;;32.03;;
59074;SDS011;44860;53.020;6.738;2022-12-04T06:49:08;59.92;;;33.67;;
59074;SDS011;44860;53.020;6.738;2022-12-04T06:51:34;56.75;;;31.63;;
59074;SDS011;44860;53.020;6.738;2022-12-04T06:54:01;62.13;;;33.17;;
59074;SDS011;44860;53.020;6.738;2022-12-04T06:56:28;59.17;;;32.33;;
59074;SDS011;44860;53.020;6.738;2022-12-04T06:58:56;57.08;;;31.70;;
59074;SDS011;44860;53.020;6.738;2022-12-04T07:01:25;62.47;;;34.08;;
59074;SDS011;44860;53.020;6.738;2022-12-04T07:03:51;63.50;;;33.85;;
59074;SDS011;44860;53.020;6.738;2022-12-04T07:06:20;64.78;;;34.95;;
59074;SDS011;44860;53.020;6.738;2022-12-04T07:08:51;61.22;;;33.15;;
59074;SDS011;44860;53.020;6.738;2022-12-04T07:11:19;68.00;;;34.65;;
59074;SDS011;44860;53.020;6.738;2022-12-04T07:13:46;59.50;;;32.42;;
59074;SDS011;44860;53.020;6.738;2022-12-04T07:16:14;62.80;;;33.58;;
59074;SDS011;44860;53.020;6.738;2022-12-04T07:18:41;61.72;;;33.13;;
59074;SDS011;44860;53.020;6.738;2022-12-04T07:21:08;63.53;;;33.08;;
59074;SDS011;44860;53.020;6.738;2022-12-04T07:23:36;61.20;;;34.10;;
59074;SDS011;44860;53.020;6.738;2022-12-04T07:26:05;63.67;;;33.88;;
59074;SDS011;44860;53.020;6.738;2022-12-04T07:28:33;67.93;;;34.70;;
59074;SDS011;44860;53.020;6.738;2022-12-04T07:31:06;68.60;;;34.38;;
59074;SDS011;44860;53.020;6.738;2022-12-04T07:33:34;63.17;;;33.47;;
59074;SDS011;44860;53.020;6.738;2022-12-04T07:36:01;65.47;;;32.63;;
59074;SDS011;44860;53.020;6.738;2022-12-04T07:38:29;63.47;;;34.17;;
59074;SDS011;44860;53.020;6.738;2022-12-04T07:40:55;63.45;;;33.83;;
59074;SDS011;44860;53.020;6.738;2022-12-04T07:43:25;63.53;;;32.35;;
59074;SDS011;44860;53.020;6.738;2022-12-04T07:45:52;65.63;;;33.53;;
59074;SDS011;44860;53.020;6.738;2022-12-04T07:48:18;64.32;;;32.95;;
59074;SDS011;44860;53.020;6.738;2022-12-04T07:50:44;65.80;;;34.42;;
59074;SDS011;44860;53.020;6.738;2022-12-04T07:53:09;62.63;;;33.72;;
59074;SDS011;44860;53.020;6.738;2022-12-04T07:55:35;66.85;;;34.50;;
59074;SDS011;44860;53.020;6.738;2022-12-04T07:58:01;64.38;;;34.10;;
59074;SDS011;44860;53.020;6.738;2022-12-04T08:00:27;61.38;;;32.83;;
59074;SDS011;44860;53.020;6.738;2022-12-04T08:02:52;58.35;;;31.98;;
59074;SDS011;44860;53.020;6.738;2022-12-04T08:05:18;73.68;;;38.63;;
59074;SDS011;44860;53.020;6.738;2022-12-04T08:07:44;64.35;;;33.78;;
59074;SDS011;44860;53.020;6.738;2022-12-04T08:10:09;59.28;;;31.98;;
59074;SDS011;44860;53.020;6.738;2022-12-04T08:12:35;68.65;;;34.35;;
59074;SDS011;44860;53.020;6.738;2022-12-04T08:15:02;61.13;;;32.42;;
59074;SDS011;44860;53.020;6.738;2022-12-04T08:17:29;66.22;;;34.33;;
59074;SDS011;44860;53.020;6.738;2022-12-04T08:19:54;64.18;;;32.78;;
59074;SDS011;44860;53.020;6.738;2022-12-04T08:22:20;61.33;;;32.92;;
59074;SDS011;44860;53.020;6.738;2022-12-04T08:24:46;61.60;;;33.25;;
59074;SDS011;44860;53.020;6.738;2022-12-04T08:27:12;64.25;;;34.50;;
59074;SDS011;44860;53.020;6.738;2022-12-04T08:29:37;60.38;;;32.17;;
59074;SDS011;44860;53.020;6.738;2022-12-04T08:32:03;62.28;;;33.25;;
59074;SDS011;44860;53.020;6.738;2022-12-04T08:34:29;61.58;;;32.58;;
59074;SDS011;44860;53.020;6.738;2022-12-04T08:36:55;61.03;;;33.30;;
59074;SDS011;44860;53.020;6.738;2022-12-04T08:39:21;61.50;;;32.25;;
59074;SDS011;44860;53.020;6.738;2022-12-04T08:41:46;59.38;;;33.03;;
59074;SDS011;44860;53.020;6.738;2022-12-04T08:44:12;62.10;;;32.97;;
59074;SDS011;44860;53.020;6.738;2022-12-04T08:46:38;60.88;;;33.05;;
59074;SDS011;44860;53.020;6.738;2022-12-04T08:49:03;60.47;;;32.92;;
59074;SDS011;44860;53.020;6.738;2022-12-04T08:51:30;54.80;;;31.20;;
59074;SDS011;44860;53.020;6.738;2022-12-04T08:54:01;59.08;;;32.17;;
59074;SDS011;44860;53.020;6.738;2022-12-04T08:56:30;58.22;;;32.17;;
59074;SDS011;44860;53.020;6.738;2022-12-04T08:58:57;59.50;;;31.08;;
59074;SDS011;44860;53.020;6.738;2022-12-04T09:01:24;55.65;;;30.90;;
59074;SDS011;44860;53.020;6.738;2022-12-04T09:03:50;59.97;;;31.00;;
59074;SDS011;44860;53.020;6.738;2022-12-04T09:06:16;57.60;;;32.65;;
59074;SDS011;44860;53.020;6.738;2022-12-04T09:08:42;64.93;;;38.00;;
59074;SDS011;44860;53.020;6.738;2022-12-04T09:11:12;58.45;;;32.40;;
59074;SDS011;44860;53.020;6.738;2022-12-04T09:13:41;57.20;;;32.67;;
59074;SDS011;44860;53.020;6.738;2022-12-04T09:16:08;55.13;;;30.92;;
59074;SDS011;44860;53.020;6.738;2022-12-04T09:18:36;54.17;;;31.13;;
59074;SDS011;44860;53.020;6.738;2022-12-04T09:21:03;55.05;;;32.78;;
59074;SDS011;44860;53.020;6.738;2022-12-04T09:23:30;55.90;;;31.25;;
59074;SDS011;44860;53.020;6.738;2022-12-04T09:25:58;59.47;;;34.22;;
59074;SDS011;44860;53.020;6.738;2022-12-04T09:28:24;55.53;;;31.83;;
59074;SDS011;44860;53.020;6.738;2022-12-04T09:31:03;57.08;;;31.90;;
59074;SDS011;44860;53.020;6.738;2022-12-04T09:33:29;54.13;;;31.23;;
59074;SDS011;44860;53.020;6.738;2022-12-04T09:35:59;54.50;;;32.80;;
59074;SDS011;44860;53.020;6.738;2022-12-04T09:38:26;56.78;;;32.97;;
59074;SDS011;44860;53.020;6.738;2022-12-04T09:40:59;56.22;;;31.75;;
59074;SDS011;44860;53.020;6.738;2022-12-04T09:43:34;55.60;;;31.35;;
59074;SDS011;44860;53.020;6.738;2022-12-04T09:46:11;52.22;;;30.92;;
59074;SDS011;44860;53.020;6.738;2022-12-04T09:48:42;53.35;;;30.67;;
59074;SDS011;44860;53.020;6.738;2022-12-04T09:51:14;55.15;;;30.83;;
59074;SDS011;44860;53.020;6.738;2022-12-04T09:53:46;49.95;;;28.52;;
59074;SDS011;44860;53.020;6.738;2022-12-04T09:56:17;50.70;;;30.05;;
59074;SDS011;44860;53.020;6.738;2022-12-04T10:01:41;50.95;;;29.63;;
59074;SDS011;44860;53.020;6.738;2022-12-04T10:04:12;50.20;;;28.55;;
59074;SDS011;44860;53.020;6.738;2022-12-04T10:07:43;49.83;;;28.67;;
59074;SDS011;44860;53.020;6.738;2022-12-04T10:09:47;49.05;;;28.17;;
59074;SDS011;44860;53.020;6.738;2022-12-04T10:20:34;48.55;;;27.77;;
59074;SDS011;44860;53.020;6.738;2022-12-04T10:23:24;45.78;;;25.65;;
59074;SDS011;44860;53.020;6.738;2022-12-04T10:26:10;45.50;;;26.73;;
59074;SDS011;44860;53.020;6.738;2022-12-04T10:28:40;44.67;;;25.77;;
59074;SDS011;44860;53.020;6.738;2022-12-04T10:31:11;42.15;;;25.55;;
59074;SDS011;44860;53.020;6.738;2022-12-04T10:33:59;43.53;;;26.25;;
59074;SDS011;44860;53.020;6.738;2022-12-04T10:36:33;44.13;;;26.92;;
59074;SDS011;44860;53.020;6.738;2022-12-04T10:39:05;43.33;;;25.30;;
59074;SDS011;44860;53.020;6.738;2022-12-04T10:44:38;42.55;;;24.25;;
59074;SDS011;44860;53.020;6.738;2022-12-04T10:47:03;41.22;;;23.40;;
59074;SDS011;44860;53.020;6.738;2022-12-04T10:49:34;42.28;;;23.60;;
59074;SDS011;44860;53.020;6.738;2022-12-04T10:52:01;41.88;;;23.95;;
59074;SDS011;44860;53.020;6.738;2022-12-04T10:57:02;40.70;;;24.13;;
59074;SDS011;44860;53.020;6.738;2022-12-04T10:59:32;39.97;;;23.40;;
59074;SDS011;44860;53.020;6.738;2022-12-04T11:01:59;40.55;;;24.52;;
59074;SDS011;44860;53.020;6.738;2022-12-04T11:04:29;40.08;;;23.13;;
59074;SDS011;44860;53.020;6.738;2022-12-04T11:07:00;39.95;;;23.67;;
59074;SDS011;44860;53.020;6.738;2022-12-04T11:09:31;41.72;;;24.25;;
59074;SDS011;44860;53.020;6.738;2022-12-04T11:12:04;37.63;;;23.45;;
59074;SDS011;44860;53.020;6.738;2022-12-04T11:14:32;39.88;;;23.75;;
59074;SDS011;44860;53.020;6.738;2022-12-04T11:17:00;41.50;;;23.67;;
59074;SDS011;44860;53.020;6.738;2022-12-04T11:19:31;39.15;;;23.75;;
59074;SDS011;44860;53.020;6.738;2022-12-04T11:22:02;36.80;;;23.02;;
59074;SDS011;44860;53.020;6.738;2022-12-04T11:27:00;37.70;;;22.35;;
59074;SDS011;44860;53.020;6.738;2022-12-04T11:29:39;35.88;;;21.10;;
59074;SDS011;44860;53.020;6.738;2022-12-04T11:32:13;36.35;;;22.55;;
59074;SDS011;44860;53.020;6.738;2022-12-04T11:34:47;36.00;;;21.65;;
59074;SDS011;44860;53.020;6.738;2022-12-04T11:37:24;38.70;;;23.67;;
59074;SDS011;44860;53.020;6.738;2022-12-04T11:39:51;36.08;;;22.13;;
59074;SDS011;44860;53.020;6.738;2022-12-04T11:42:22;36.15;;;22.60;;
59074;SDS011;44860;53.020;6.738;2022-12-04T11:45:00;35.50;;;21.70;;
59074;SDS011;44860;53.020;6.738;2022-12-04T11:47:29;36.05;;;22.15;;
59074;SDS011;44860;53.020;6.738;2022-12-04T11:50:11;34.83;;;21.48;;
59074;SDS011;44860;53.020;6.738;2022-12-04T12:00:28;36.90;;;21.75;;
59074;SDS011;44860;53.020;6.738;2022-12-04T12:03:05;36.00;;;21.00;;
59074;SDS011;44860;53.020;6.738;2022-12-04T12:05:46;37.58;;;22.05;;
59074;SDS011;44860;53.020;6.738;2022-12-04T12:08:33;33.42;;;20.70;;
59074;SDS011;44860;53.020;6.738;2022-12-04T12:13:55;34.30;;;20.55;;
59074;SDS011;44860;53.020;6.738;2022-12-04T12:16:31;34.53;;;21.15;;
59074;SDS011;44860;53.020;6.738;2022-12-04T12:24:28;33.80;;;21.10;;
59074;SDS011;44860;53.020;6.738;2022-12-04T12:35:21;31.35;;;19.75;;
59074;SDS011;44860;53.020;6.738;2022-12-04T12:38:09;30.60;;;19.48;;
59074;SDS011;44860;53.020;6.738;2022-12-04T12:40:40;31.98;;;19.98;;
59074;SDS011;44860;53.020;6.738;2022-12-04T12:51:27;33.50;;;20.52;;
59074;SDS011;44860;53.020;6.738;2022-12-04T12:54:03;33.13;;;20.60;;
59074;SDS011;44860;53.020;6.738;2022-12-04T12:56:49;36.30;;;21.25;;
59074;SDS011;44860;53.020;6.738;2022-12-04T12:59:20;35.60;;;21.13;;
59074;SDS011;44860;53.020;6.738;2022-12-04T13:02:00;37.17;;;22.80;;
59074;SDS011;44860;53.020;6.738;2022-12-04T13:04:48;35.72;;;22.27;;
59074;SDS011;44860;53.020;6.738;2022-12-04T13:09:53;38.63;;;24.40;;
59074;SDS011;44860;53.020;6.738;2022-12-04T13:12:32;44.35;;;27.85;;
59074;SDS011;44860;53.020;6.738;2022-12-04T13:15:14;38.42;;;23.05;;
59074;SDS011;44860;53.020;6.738;2022-12-04T13:17:41;35.97;;;23.42;;
59074;SDS011;44860;53.020;6.738;2022-12-04T13:20:12;44.05;;;27.40;;
59074;SDS011;44860;53.020;6.738;2022-12-04T13:25:58;41.22;;;25.23;;
59074;SDS011;44860;53.020;6.738;2022-12-04T13:28:52;44.20;;;27.02;;
59074;SDS011;44860;53.020;6.738;2022-12-04T13:34:09;36.33;;;22.60;;
59074;SDS011;44860;53.020;6.738;2022-12-04T13:42:38;39.90;;;25.45;;
59074;SDS011;44860;53.020;6.738;2022-12-04T13:45:23;37.65;;;23.15;;
59074;SDS011;44860;53.020;6.738;2022-12-04T13:48:01;39.90;;;23.98;;
59074;SDS011;44860;53.020;6.738;2022-12-04T13:53:03;42.05;;;26.67;;
59074;SDS011;44860;53.020;6.738;2022-12-04T13:58:04;40.15;;;22.95;;
59074;SDS011;44860;53.020;6.738;2022-12-04T14:00:59;37.60;;;24.27;;
59074;SDS011;44860;53.020;6.738;2022-12-04T14:03:27;38.05;;;22.45;;
59074;SDS011;44860;53.020;6.738;2022-12-04T14:05:59;32.22;;;20.92;;
59074;SDS011;44860;53.020;6.738;2022-12-04T14:08:32;35.58;;;22.75;;
59074;SDS011;44860;53.020;6.738;2022-12-04T14:16:33;45.88;;;26.13;;
59074;SDS011;44860;53.020;6.738;2022-12-04T14:19:04;47.50;;;26.60;;
59074;SDS011;44860;53.020;6.738;2022-12-04T14:21:43;44.28;;;25.48;;
59074;SDS011;44860;53.020;6.738;2022-12-04T14:27:47;45.88;;;26.60;;
59074;SDS011;44860;53.020;6.738;2022-12-04T14:30:05;44.67;;;26.50;;
59074;SDS011;44860;53.020;6.738;2022-12-04T14:32:51;43.83;;;26.23;;
59074;SDS011;44860;53.020;6.738;2022-12-04T14:35:23;43.42;;;26.73;;
59074;SDS011;44860;53.020;6.738;2022-12-04T14:40:41;43.30;;;25.45;;
59074;SDS011;44860;53.020;6.738;2022-12-04T14:48:24;43.95;;;24.35;;
59074;SDS011;44860;53.020;6.738;2022-12-04T14:54:14;45.05;;;24.98;;
59074;SDS011;44860;53.020;6.738;2022-12-04T14:56:54;41.53;;;24.35;;
59074;SDS011;44860;53.020;6.738;2022-12-04T14:59:48;39.63;;;24.33;;
59074;SDS011;44860;53.020;6.738;2022-12-04T15:02:37;36.15;;;22.52;;
59074;SDS011;44860;53.020;6.738;2022-12-04T15:05:07;38.60;;;23.25;;
59074;SDS011;44860;53.020;6.738;2022-12-04T15:07:34;39.47;;;23.33;;
59074;SDS011;44860;53.020;6.738;2022-12-04T15:10:00;36.42;;;21.90;;
59074;SDS011;44860;53.020;6.738;2022-12-04T15:12:56;38.38;;;22.13;;
59074;SDS011;44860;53.020;6.738;2022-12-04T15:15:23;37.00;;;22.35;;
59074;SDS011;44860;53.020;6.738;2022-12-04T15:17:54;35.17;;;21.63;;
59074;SDS011;44860;53.020;6.738;2022-12-04T15:20:24;35.20;;;21.77;;
59074;SDS011;44860;53.020;6.738;2022-12-04T15:22:51;36.28;;;22.13;;
59074;SDS011;44860;53.020;6.738;2022-12-04T15:25:23;36.78;;;21.90;;
59074;SDS011;44860;53.020;6.738;2022-12-04T15:27:52;36.75;;;21.98;;
59074;SDS011;44860;53.020;6.738;2022-12-04T15:30:24;32.28;;;20.40;;
59074;SDS011;44860;53.020;6.738;2022-12-04T15:32:53;35.72;;;20.92;;
59074;SDS011;44860;53.020;6.738;2022-12-04T15:35:21;36.40;;;22.13;;
59074;SDS011;44860;53.020;6.738;2022-12-04T15:37:50;36.55;;;21.13;;
59074;SDS011;44860;53.020;6.738;2022-12-04T15:40:18;37.92;;;21.55;;
59074;SDS011;44860;53.020;6.738;2022-12-04T15:42:49;38.85;;;23.10;;
59074;SDS011;44860;53.020;6.738;2022-12-04T15:52:45;38.08;;;22.30;;
59074;SDS011;44860;53.020;6.738;2022-12-04T15:55:14;40.83;;;22.77;;
59074;SDS011;44860;53.020;6.738;2022-12-04T15:57:42;39.50;;;22.85;;
59074;SDS011;44860;53.020;6.738;2022-12-04T16:02:45;43.05;;;24.08;;
59074;SDS011;44860;53.020;6.738;2022-12-04T16:07:50;45.15;;;24.35;;
59074;SDS011;44860;53.020;6.738;2022-12-04T16:10:18;42.95;;;23.85;;
59074;SDS011;44860;53.020;6.738;2022-12-04T16:13:28;42.87;;;25.40;;
59074;SDS011;44860;53.020;6.738;2022-12-04T16:15:50;43.85;;;24.88;;
59074;SDS011;44860;53.020;6.738;2022-12-04T16:18:16;46.17;;;25.27;;
59074;SDS011;44860;53.020;6.738;2022-12-04T16:20:42;45.28;;;26.08;;
59074;SDS011;44860;53.020;6.738;2022-12-04T16:23:08;43.78;;;25.42;;
59074;SDS011;44860;53.020;6.738;2022-12-04T16:25:34;44.80;;;25.73;;
59074;SDS011;44860;53.020;6.738;2022-12-04T16:28:00;46.50;;;25.55;;
59074;SDS011;44860;53.020;6.738;2022-12-04T16:30:26;46.28;;;24.60;;
59074;SDS011;44860;53.020;6.738;2022-12-04T16:32:54;43.00;;;25.25;;
59074;SDS011;44860;53.020;6.738;2022-12-04T16:35:19;43.85;;;25.23;;
59074;SDS011;44860;53.020;6.738;2022-12-04T16:37:45;50.17;;;26.90;;
59074;SDS011;44860;53.020;6.738;2022-12-04T16:40:11;47.35;;;26.77;;
59074;SDS011;44860;53.020;6.738;2022-12-04T16:42:38;44.22;;;25.45;;
59074;SDS011;44860;53.020;6.738;2022-12-04T16:45:26;42.85;;;26.05;;
59074;SDS011;44860;53.020;6.738;2022-12-04T16:47:53;45.28;;;25.58;;
59074;SDS011;44860;53.020;6.738;2022-12-04T16:50:19;44.63;;;25.92;;